Portsoy, United Kingdom
Current Conditions -  °F | °C
As of 12:50 PM on Tuesday 21 Oct 2014 (Local Time) from EGQS Reporting Station
Broken Clouds Broken Clouds  
Wind Chill: 39°   Ceiling: 4500
Heat Index: 48°   Visibility: 6mi
Dew Point: 43°   Wind: 37mph
Humidity: 82%   Direction: 300°WNW
Pressure: 29.29"   Gusts: 52mph
Location:  57.68°N, 2.69°W
Report Text: EGQS 211150Z 30032G45KT 9999 SCT023 BKN045 09/06 Q0992 RESHRA RESHGS WHT TEMPO 4000 SHRA GRN
Loading
Personal Weather Stations






























Interactive Weather Map New forecast layout! Learn more

10-Day Weather Forecast

Advertisements
Track Severe Weather on mobile